createdAt,value
2023-03-29T00:00:30.158Z,100.00
2023-03-29T00:20:50.393Z,98.24
2023-03-29T00:41:10.301Z,99.30
2023-03-29T01:01:11.819Z,100.00
2023-03-29T01:21:13.663Z,100.00
2023-03-29T01:41:15.502Z,100.00
2023-03-29T02:01:17.356Z,100.00
2023-03-29T02:21:19.175Z,100.00
2023-03-29T02:41:22.192Z,100.00
2023-03-29T03:01:23.995Z,100.00
2023-03-29T03:21:25.784Z,100.00
2023-03-29T03:41:27.852Z,100.00
2023-03-29T04:01:29.753Z,99.96
2023-03-29T04:21:41.760Z,100.00
2023-03-29T04:41:45.243Z,100.00
2023-03-29T05:01:52.951Z,100.00
2023-03-29T05:21:55.001Z,87.10
2023-03-29T05:41:58.616Z,80.78
2023-03-29T06:02:10.729Z,85.41
2023-03-29T06:22:17.155Z,80.52
2023-03-29T06:42:21.478Z,64.43
2023-03-29T07:02:49.655Z,52.25
2023-03-29T07:22:52.530Z,46.31
2023-03-29T07:42:54.875Z,43.66
2023-03-29T08:02:58.417Z,42.14
2023-03-29T08:23:00.793Z,43.90
2023-03-29T08:43:25.433Z,45.45
2023-03-29T09:03:46.729Z,47.74
2023-03-29T09:23:56.853Z,47.48
2023-03-29T09:44:23.884Z,46.18
2023-03-29T10:04:35.933Z,39.59
2023-03-29T10:24:45.498Z,39.33
2023-03-29T10:44:47.075Z,35.41
2023-03-29T11:04:48.824Z,38.58
2023-03-29T11:24:51.503Z,36.43
2023-03-29T11:44:54.942Z,38.33
2023-03-29T12:04:58.134Z,39.29
2023-03-29T12:25:14.310Z,38.62
2023-03-29T12:45:16.181Z,45.85
2023-03-29T13:05:17.981Z,46.32
2023-03-29T13:25:19.484Z,51.62
2023-03-29T13:45:21.625Z,56.48
2023-03-29T14:05:23.154Z,58.26
2023-03-29T14:25:26.032Z,58.21
2023-03-29T14:45:27.511Z,57.72
2023-03-29T15:05:29.309Z,64.90
2023-03-29T15:25:30.892Z,91.42
2023-03-29T15:45:32.655Z,91.86
2023-03-29T16:05:34.340Z,91.81
2023-03-29T16:25:36.031Z,93.85
2023-03-29T16:45:37.478Z,95.67
2023-03-29T17:05:39.294Z,94.39
2023-03-29T17:25:40.754Z,93.81
2023-03-29T17:45:42.869Z,86.19
2023-03-29T18:05:44.523Z,96.38
2023-03-29T18:25:48.747Z,93.61
2023-03-29T18:45:50.539Z,88.53
2023-03-29T19:05:52.128Z,84.27
2023-03-29T19:25:53.717Z,78.90
2023-03-29T19:45:55.295Z,79.11
2023-03-29T20:05:57.721Z,75.92
2023-03-29T20:25:59.484Z,76.99
2023-03-29T20:46:01.293Z,76.72
2023-03-29T21:06:02.928Z,74.30
2023-03-29T21:26:04.652Z,78.02
2023-03-29T21:46:08.325Z,74.63
2023-03-29T22:06:10.164Z,75.11
2023-03-29T22:26:14.581Z,77.19
2023-03-29T22:46:18.060Z,83.02
2023-03-29T23:06:19.704Z,81.03
2023-03-29T23:26:21.373Z,80.93
2023-03-29T23:46:26.097Z,81.81
